createdAt,value
2023-01-12T00:00:07.772Z,8.70
2023-01-12T00:02:40.586Z,8.70
2023-01-12T00:05:08.495Z,8.80
2023-01-12T00:07:35.670Z,8.70
2023-01-12T00:10:02.530Z,8.60
2023-01-12T00:12:29.336Z,8.70
2023-01-12T00:14:56.474Z,8.60
2023-01-12T00:17:23.225Z,8.80
2023-01-12T00:19:56.718Z,8.70
2023-01-12T00:22:24.048Z,8.70
2023-01-12T00:24:50.896Z,8.70
2023-01-12T00:27:19.908Z,8.70
2023-01-12T00:29:47.814Z,8.70
2023-01-12T00:32:17.260Z,8.80
2023-01-12T00:34:44.354Z,8.80
2023-01-12T00:37:13.241Z,8.80
2023-01-12T00:39:45.815Z,8.80
2023-01-12T00:42:15.853Z,8.80
2023-01-12T00:44:42.777Z,8.80
2023-01-12T00:47:10.944Z,8.70
2023-01-12T00:49:39.854Z,8.70
2023-01-12T00:52:09.843Z,8.80
2023-01-12T00:54:40.744Z,8.70
2023-01-12T00:57:08.245Z,8.80
2023-01-12T00:59:35.207Z,8.80
2023-01-12T01:02:02.952Z,8.80
2023-01-12T01:04:29.833Z,8.70
2023-01-12T01:06:56.983Z,8.70
2023-01-12T01:09:23.854Z,8.70
2023-01-12T01:11:51.947Z,8.80
2023-01-12T01:14:18.904Z,8.70
2023-01-12T01:16:45.666Z,8.70
2023-01-12T01:19:14.878Z,8.70
2023-01-12T01:21:41.827Z,8.70
2023-01-12T01:24:11.938Z,8.80
2023-01-12T01:26:40.455Z,8.70
2023-01-12T01:29:09.237Z,8.70
2023-01-12T01:31:36.812Z,8.60
2023-01-12T01:34:03.655Z,8.60
2023-01-12T01:36:30.864Z,8.40
2023-01-12T01:38:57.792Z,8.40
2023-01-12T01:41:28.321Z,8.30
2023-01-12T01:43:59.166Z,8.20
2023-01-12T01:46:40.077Z,8.10
2023-01-12T01:49:26.715Z,8.00
2023-01-12T01:51:59.835Z,7.90
2023-01-12T01:54:30.979Z,7.80
2023-01-12T01:56:58.135Z,7.80
2023-01-12T01:59:31.519Z,7.90
2023-01-12T02:02:00.985Z,7.80
2023-01-12T02:04:28.239Z,7.80
2023-01-12T02:06:56.689Z,7.70
2023-01-12T02:09:27.150Z,7.70
2023-01-12T02:11:55.633Z,7.90
2023-01-12T02:14:22.728Z,7.90
2023-01-12T02:17:04.658Z,7.90
2023-01-12T02:20:32.652Z,7.90
2023-01-12T02:23:34.136Z,7.90
2023-01-12T02:26:35.507Z,7.90
2023-01-12T02:29:53.509Z,7.90
2023-01-12T02:32:29.288Z,7.90
2023-01-12T02:35:14.963Z,7.90
2023-01-12T02:37:51.762Z,7.90
2023-01-12T02:40:25.705Z,7.90
2023-01-12T02:43:01.054Z,7.90
2023-01-12T02:45:41.155Z,7.90
2023-01-12T02:48:20.031Z,7.90
2023-01-12T02:50:55.594Z,7.90
2023-01-12T02:53:32.371Z,7.90
2023-01-12T02:56:04.998Z,7.90
2023-01-12T02:58:37.862Z,7.90
2023-01-12T03:01:07.302Z,7.90
2023-01-12T03:03:37.992Z,7.90
2023-01-12T03:06:06.201Z,7.90
2023-01-12T03:08:37.138Z,7.90
2023-01-12T03:11:13.254Z,8.00
2023-01-12T03:13:47.083Z,8.00
2023-01-12T03:16:19.924Z,8.00
2023-01-12T03:19:00.505Z,8.00
2023-01-12T03:21:34.775Z,8.00
2023-01-12T03:24:08.133Z,8.10
2023-01-12T03:26:41.497Z,8.00
2023-01-12T03:29:26.954Z,8.00
2023-01-12T03:31:54.319Z,8.10
2023-01-12T03:34:23.408Z,8.10
2023-01-12T03:37:01.589Z,8.20
2023-01-12T03:39:39.901Z,8.30
2023-01-12T03:42:15.627Z,8.30
2023-01-12T03:44:55.704Z,8.30
2023-01-12T03:47:28.501Z,8.40
2023-01-12T03:50:03.707Z,8.50
2023-01-12T03:52:34.243Z,8.60
2023-01-12T03:55:08.274Z,8.60
2023-01-12T03:57:38.188Z,8.60
2023-01-12T04:00:10.503Z,8.70
2023-01-12T04:02:42.918Z,8.70
2023-01-12T04:05:13.988Z,8.70
2023-01-12T04:07:41.062Z,8.70
2023-01-12T04:10:09.528Z,8.70
2023-01-12T04:12:36.591Z,8.80
2023-01-12T04:15:04.120Z,8.70
2023-01-12T04:17:31.249Z,8.70
2023-01-12T04:19:58.243Z,8.70
2023-01-12T04:22:26.548Z,8.80
2023-01-12T04:24:54.554Z,8.70
2023-01-12T04:27:22.665Z,8.80
2023-01-12T04:29:49.705Z,8.70
2023-01-12T04:32:16.939Z,8.70
2023-01-12T04:34:43.737Z,8.80
2023-01-12T04:37:10.950Z,8.80
2023-01-12T04:39:39.223Z,8.80
2023-01-12T04:42:06.266Z,8.80
2023-01-12T04:44:33.074Z,8.80
2023-01-12T04:46:59.994Z,8.80
2023-01-12T04:49:26.777Z,8.80
2023-01-12T04:51:53.747Z,8.80
2023-01-12T04:54:20.446Z,8.80
2023-01-12T04:56:48.805Z,8.80
2023-01-12T04:59:15.676Z,8.80
2023-01-12T05:01:42.743Z,8.90
2023-01-12T05:04:09.728Z,8.90
2023-01-12T05:06:36.803Z,8.90
2023-01-12T05:09:08.887Z,9.00
2023-01-12T05:11:35.605Z,9.00
2023-01-12T05:14:04.572Z,9.00
2023-01-12T05:16:31.893Z,8.90
2023-01-12T05:21:49.409Z,9.00
2023-01-12T05:24:16.814Z,9.10
2023-01-12T05:26:43.838Z,9.00
2023-01-12T05:29:12.872Z,9.00
2023-01-12T05:31:39.746Z,9.00
2023-01-12T05:34:06.562Z,9.00
2023-01-12T05:36:33.403Z,9.00
2023-01-12T05:39:00.215Z,9.00
2023-01-12T05:41:27.207Z,9.00
2023-01-12T05:43:54.008Z,8.90
2023-01-12T05:46:24.859Z,8.90
2023-01-12T05:48:53.472Z,9.00
2023-01-12T05:51:21.221Z,9.00
2023-01-12T05:53:48.455Z,8.90
2023-01-12T05:56:19.697Z,8.90
2023-01-12T05:58:50.580Z,8.90
2023-01-12T06:01:17.605Z,9.00
2023-01-12T06:03:49.138Z,8.90
2023-01-12T06:06:15.925Z,8.90
2023-01-12T06:08:42.902Z,8.90
2023-01-12T06:11:09.841Z,9.00
2023-01-12T06:13:36.861Z,9.00
2023-01-12T06:16:06.079Z,8.90
2023-01-12T06:18:34.420Z,9.00
2023-01-12T06:21:05.664Z,8.90
2023-01-12T06:23:35.269Z,9.00
2023-01-12T06:26:05.280Z,9.00
2023-01-12T06:28:32.090Z,9.00
2023-01-12T06:31:01.396Z,9.10
2023-01-12T06:33:29.416Z,9.00
2023-01-12T06:35:57.071Z,9.10
2023-01-12T06:38:30.052Z,9.00
2023-01-12T06:41:02.337Z,9.10
2023-01-12T06:43:29.504Z,9.00
2023-01-12T06:45:56.494Z,9.10
2023-01-12T06:48:24.026Z,9.10
2023-01-12T06:50:50.855Z,9.10
2023-01-12T06:53:17.541Z,9.20
2023-01-12T06:55:49.968Z,9.10
2023-01-12T06:58:17.337Z,9.10
2023-01-12T07:00:44.383Z,9.10
2023-01-12T07:03:16.406Z,9.10
2023-01-12T07:05:43.339Z,9.10
2023-01-12T07:08:10.245Z,9.10
2023-01-12T07:10:37.025Z,9.20
2023-01-12T07:13:05.104Z,9.20
2023-01-12T07:15:32.310Z,9.30
2023-01-12T07:17:59.216Z,9.20
2023-01-12T07:20:26.027Z,9.40
2023-01-12T07:22:54.906Z,9.30
2023-01-12T07:25:22.331Z,9.30
2023-01-12T07:27:49.455Z,9.30
2023-01-12T07:30:18.434Z,9.30
2023-01-12T07:32:45.218Z,9.20
2023-01-12T07:35:11.966Z,9.30
2023-01-12T07:37:38.729Z,9.40
2023-01-12T07:40:07.404Z,9.50
2023-01-12T07:42:34.070Z,9.40
2023-01-12T07:45:02.103Z,9.40
2023-01-12T07:47:30.265Z,9.50
2023-01-12T07:49:57.197Z,9.50
2023-01-12T07:52:24.178Z,9.40
2023-01-12T07:54:50.880Z,9.50
2023-01-12T07:57:17.994Z,9.40
2023-01-12T07:59:44.691Z,9.50
2023-01-12T08:02:14.156Z,9.50
2023-01-12T08:04:42.442Z,9.60
2023-01-12T08:07:09.421Z,9.60
2023-01-12T08:09:36.650Z,9.50
2023-01-12T08:12:04.134Z,9.50
2023-01-12T08:14:35.181Z,9.60
2023-01-12T08:17:06.139Z,9.60
2023-01-12T08:19:40.959Z,9.70
2023-01-12T08:22:17.717Z,9.60
2023-01-12T08:24:50.753Z,9.70
2023-01-12T08:27:23.785Z,9.70
2023-01-12T08:29:55.796Z,9.60
2023-01-12T08:32:24.339Z,9.70
2023-01-12T08:34:54.116Z,9.70
2023-01-12T08:37:24.822Z,9.60
2023-01-12T08:39:52.659Z,9.70
2023-01-12T08:42:19.478Z,9.50
2023-01-12T08:44:46.357Z,9.70
2023-01-12T08:47:19.450Z,9.70
2023-01-12T08:49:46.762Z,9.70
2023-01-12T08:52:15.211Z,9.70
2023-01-12T08:54:43.604Z,9.70
2023-01-12T08:57:10.969Z,9.60
2023-01-12T08:59:37.740Z,9.70
2023-01-12T09:02:05.569Z,9.60
2023-01-12T09:04:32.779Z,9.60
2023-01-12T09:07:00.259Z,9.60
2023-01-12T09:09:27.310Z,9.60
2023-01-12T09:11:56.213Z,9.80
2023-01-12T09:14:23.091Z,9.80
2023-01-12T09:16:50.052Z,9.70
2023-01-12T09:19:17.685Z,9.70
2023-01-12T09:21:44.780Z,9.60
2023-01-12T09:24:12.607Z,9.70
2023-01-12T09:26:44.440Z,9.80
2023-01-12T09:29:14.156Z,9.70
2023-01-12T09:31:43.427Z,9.60
2023-01-12T09:34:10.516Z,9.60
2023-01-12T09:36:39.494Z,9.70
2023-01-12T09:39:09.822Z,9.70
2023-01-12T09:41:39.023Z,9.90
2023-01-12T09:44:18.071Z,9.80
2023-01-12T09:46:45.285Z,10.00
2023-01-12T09:49:13.748Z,9.90
2023-01-12T09:51:53.985Z,9.90
2023-01-12T09:54:21.172Z,9.90
2023-01-12T09:56:59.114Z,9.80
2023-01-12T09:59:40.509Z,9.90
2023-01-12T10:02:13.402Z,10.10
2023-01-12T10:04:40.710Z,10.10
2023-01-12T10:07:13.361Z,10.10
2023-01-12T10:09:40.946Z,10.20
2023-01-12T10:12:22.452Z,10.20
2023-01-12T10:15:07.691Z,10.10
2023-01-12T10:17:51.268Z,10.10
2023-01-12T10:20:27.566Z,10.20
2023-01-12T10:23:02.036Z,10.20
2023-01-12T10:25:38.198Z,10.20
2023-01-12T10:28:15.675Z,10.20
2023-01-12T10:30:45.224Z,10.40
2023-01-12T10:33:16.595Z,10.30
2023-01-12T10:35:57.253Z,10.40
2023-01-12T10:38:28.762Z,10.40
2023-01-12T10:41:15.549Z,10.60
2023-01-12T10:43:44.545Z,10.50
2023-01-12T10:46:16.431Z,10.60
2023-01-12T10:48:45.962Z,10.50
2023-01-12T10:51:26.498Z,10.50
2023-01-12T10:54:00.308Z,10.50
2023-01-12T10:56:33.111Z,10.60
2023-01-12T10:59:07.513Z,10.70
2023-01-12T11:01:49.548Z,10.80
2023-01-12T11:04:22.079Z,10.90
2023-01-12T11:07:05.123Z,10.90
2023-01-12T11:09:32.574Z,10.90
2023-01-12T11:12:03.130Z,11.00
2023-01-12T11:14:33.413Z,11.00
2023-01-12T11:17:31.420Z,11.10
2023-01-12T11:20:01.703Z,11.10
2023-01-12T11:22:35.719Z,11.30
2023-01-12T11:25:10.481Z,11.20
2023-01-12T11:27:45.269Z,11.20
2023-01-12T11:30:21.208Z,11.30
2023-01-12T11:32:56.729Z,11.20
2023-01-12T11:35:33.789Z,11.30
2023-01-12T11:38:09.283Z,11.30
2023-01-12T11:40:39.836Z,11.30
2023-01-12T11:43:23.718Z,11.40
2023-01-12T11:45:58.145Z,11.30
2023-01-12T11:48:46.047Z,11.60
2023-01-12T11:51:15.935Z,12.00
2023-01-12T11:53:44.239Z,12.10
2023-01-12T11:56:46.080Z,12.20
2023-01-12T11:59:22.621Z,12.60
2023-01-12T12:02:01.661Z,12.70
2023-01-12T12:04:49.405Z,12.60
2023-01-12T12:07:43.824Z,12.50
2023-01-12T12:10:22.133Z,12.40
2023-01-12T12:13:29.357Z,12.40
2023-01-12T12:16:18.068Z,12.40
2023-01-12T12:19:02.834Z,12.50
2023-01-12T12:21:48.734Z,12.50
2023-01-12T12:24:39.363Z,12.40
2023-01-12T12:27:18.717Z,12.30
2023-01-12T12:30:24.547Z,12.20
2023-01-12T12:33:06.266Z,12.10
2023-01-12T12:35:52.476Z,12.20
2023-01-12T12:38:43.449Z,12.30
2023-01-12T12:41:25.879Z,12.40
2023-01-12T12:44:14.314Z,12.40
2023-01-12T12:46:55.426Z,12.30
2023-01-12T12:49:29.718Z,12.00
2023-01-12T12:51:58.887Z,11.80
2023-01-12T12:54:29.397Z,11.70
2023-01-12T12:56:57.293Z,11.80
2023-01-12T12:59:53.173Z,12.00
2023-01-12T13:02:37.414Z,12.20
2023-01-12T13:05:08.133Z,12.30
2023-01-12T13:07:43.652Z,12.30
2023-01-12T13:10:26.760Z,12.40
2023-01-12T13:13:23.126Z,12.50
2023-01-12T13:16:46.898Z,12.60
2023-01-12T13:19:34.263Z,12.40
2023-01-12T13:22:42.459Z,12.30
2023-01-12T13:25:55.113Z,12.30
2023-01-12T13:28:21.973Z,12.40
2023-01-12T13:30:51.687Z,12.20
2023-01-12T13:33:25.922Z,12.10
2023-01-12T13:36:10.205Z,12.20
2023-01-12T13:39:03.233Z,12.10
2023-01-12T13:41:35.206Z,12.00
2023-01-12T13:44:02.815Z,12.00
2023-01-12T13:46:36.562Z,12.00
2023-01-12T13:49:21.623Z,11.80
2023-01-12T13:51:56.799Z,11.90
2023-01-12T13:54:24.067Z,11.80
2023-01-12T13:56:58.475Z,11.70
2023-01-12T13:59:27.477Z,11.70
2023-01-12T14:01:54.801Z,11.70
2023-01-12T14:04:38.734Z,11.60
2023-01-12T14:07:18.764Z,11.60
2023-01-12T14:09:57.325Z,11.50
2023-01-12T14:13:26.116Z,11.60
2023-01-12T14:16:00.124Z,11.50
2023-01-12T14:18:40.202Z,11.50
2023-01-12T14:21:22.737Z,11.40
2023-01-12T14:23:50.143Z,11.40
2023-01-12T14:26:21.976Z,11.40
2023-01-12T14:28:52.167Z,11.30
2023-01-12T14:31:26.368Z,11.20
2023-01-12T14:33:56.798Z,11.20
2023-01-12T14:36:28.489Z,11.20
2023-01-12T14:38:57.986Z,11.20
2023-01-12T14:41:28.045Z,11.10
2023-01-12T14:43:56.664Z,11.10
2023-01-12T14:46:29.141Z,11.10
2023-01-12T14:49:01.859Z,11.00
2023-01-12T14:51:31.482Z,11.10
2023-01-12T14:54:16.026Z,11.00
2023-01-12T14:56:49.848Z,11.00
2023-01-12T14:59:21.639Z,10.90
2023-01-12T15:01:49.698Z,10.80
2023-01-12T15:04:20.365Z,10.80
2023-01-12T15:07:00.229Z,10.80
2023-01-12T15:09:30.218Z,10.80
2023-01-12T15:11:57.233Z,10.70
2023-01-12T15:14:28.751Z,10.70
2023-01-12T15:16:55.827Z,10.70
2023-01-12T15:19:22.662Z,10.60
2023-01-12T15:21:49.520Z,10.60
2023-01-12T15:24:24.033Z,10.60
2023-01-12T15:27:01.917Z,10.60
2023-01-12T15:29:34.079Z,10.60
2023-01-12T15:32:01.861Z,10.60
2023-01-12T15:34:28.735Z,10.60
2023-01-12T15:36:56.202Z,10.60
2023-01-12T15:39:23.079Z,10.60
2023-01-12T15:41:50.655Z,10.60
2023-01-12T15:44:19.989Z,10.60
2023-01-12T15:46:48.440Z,10.60
2023-01-12T15:49:15.802Z,10.60
2023-01-12T15:51:48.364Z,10.60
2023-01-12T15:54:17.825Z,10.60
2023-01-12T15:56:45.584Z,10.60
2023-01-12T15:59:12.467Z,10.70
2023-01-12T16:01:45.030Z,10.70
2023-01-12T16:07:05.501Z,10.70
2023-01-12T16:09:32.361Z,10.70
2023-01-12T16:11:59.034Z,10.70
2023-01-12T16:14:25.816Z,10.80
2023-01-12T16:16:52.682Z,10.80
2023-01-12T16:19:22.047Z,10.80
2023-01-12T16:21:49.356Z,10.90
2023-01-12T16:24:16.137Z,10.90
2023-01-12T16:26:43.228Z,10.90
2023-01-12T16:29:10.242Z,10.80
2023-01-12T16:31:39.208Z,10.80
2023-01-12T16:34:06.324Z,10.80
2023-01-12T16:36:34.476Z,10.80
2023-01-12T16:39:01.506Z,10.80
2023-01-12T16:41:28.429Z,10.80
2023-01-12T16:43:58.977Z,10.90
2023-01-12T16:46:27.283Z,10.90
2023-01-12T16:48:54.222Z,10.90
2023-01-12T16:51:20.984Z,10.90
2023-01-12T16:53:49.543Z,10.90
2023-01-12T16:56:17.031Z,10.90
2023-01-12T16:58:43.954Z,10.90
2023-01-12T17:01:12.961Z,11.00
2023-01-12T17:03:39.879Z,11.00
2023-01-12T17:06:10.009Z,10.90
2023-01-12T17:08:37.598Z,10.90
2023-01-12T17:11:08.424Z,10.90
2023-01-12T17:13:36.092Z,10.80
2023-01-12T17:16:06.627Z,10.80
2023-01-12T17:18:34.115Z,10.80
2023-01-12T17:21:01.540Z,10.80
2023-01-12T17:23:28.715Z,10.80
2023-01-12T17:25:55.788Z,10.80
2023-01-12T17:28:24.034Z,10.80
2023-01-12T17:30:50.855Z,10.90
2023-01-12T17:33:17.860Z,10.90
2023-01-12T17:35:44.692Z,10.80
2023-01-12T17:38:11.500Z,10.90
2023-01-12T17:40:39.097Z,10.90
2023-01-12T17:43:07.709Z,10.90
2023-01-12T17:45:40.722Z,10.90
2023-01-12T17:48:07.489Z,10.90
2023-01-12T17:50:34.548Z,10.90
2023-01-12T17:53:02.234Z,11.00
2023-01-12T17:55:29.665Z,11.00
2023-01-12T17:57:56.646Z,11.00
2023-01-12T18:00:23.907Z,11.10
2023-01-12T18:02:53.908Z,11.10
2023-01-12T18:05:20.659Z,11.10
2023-01-12T18:07:47.625Z,11.10
2023-01-12T18:10:14.532Z,11.10
2023-01-12T18:12:41.382Z,11.20
2023-01-12T18:15:10.233Z,11.20
2023-01-12T18:17:37.291Z,11.20
2023-01-12T18:20:06.782Z,11.20
2023-01-12T18:22:33.650Z,11.20
2023-01-12T18:25:00.428Z,11.30
2023-01-12T18:27:27.191Z,11.30
2023-01-12T18:29:53.976Z,11.30
2023-01-12T18:32:20.723Z,11.30
2023-01-12T18:34:47.800Z,11.20
2023-01-12T18:37:15.851Z,11.30
2023-01-12T18:39:42.914Z,11.40
2023-01-12T18:42:10.037Z,11.40
2023-01-12T18:44:37.495Z,11.30
2023-01-12T18:47:05.140Z,11.20
2023-01-12T18:49:35.169Z,11.20
2023-01-12T18:52:03.067Z,11.20
2023-01-12T18:54:31.420Z,11.20
2023-01-12T18:56:58.290Z,11.30
2023-01-12T18:59:25.727Z,11.20
2023-01-12T19:01:52.930Z,11.20
2023-01-12T19:04:20.313Z,11.30
2023-01-12T19:06:47.057Z,11.20
2023-01-12T19:09:13.972Z,11.30
2023-01-12T19:11:42.319Z,11.30
2023-01-12T19:14:10.221Z,11.30
2023-01-12T19:16:37.000Z,11.40
2023-01-12T19:19:03.971Z,11.30
2023-01-12T19:21:31.315Z,11.30
2023-01-12T19:23:58.189Z,11.30
2023-01-12T19:26:24.990Z,11.30
2023-01-12T19:28:53.100Z,11.30
2023-01-12T19:31:19.886Z,11.40
2023-01-12T19:33:46.682Z,11.40
2023-01-12T19:36:14.265Z,11.40
2023-01-12T19:38:41.716Z,11.30
2023-01-12T19:41:09.726Z,11.30
2023-01-12T19:43:36.626Z,11.30
2023-01-12T19:46:05.124Z,11.30
2023-01-12T19:48:32.151Z,11.40
2023-01-12T19:51:10.172Z,11.40
2023-01-12T19:53:39.486Z,11.30
2023-01-12T19:56:10.522Z,11.30
2023-01-12T19:58:38.115Z,11.30
2023-01-12T20:01:06.686Z,11.30
2023-01-12T20:03:33.748Z,11.40
2023-01-12T20:06:05.642Z,11.40
2023-01-12T20:08:33.189Z,11.30
2023-01-12T20:11:03.990Z,11.40
2023-01-12T20:13:32.356Z,11.30
2023-01-12T20:15:59.842Z,11.40
2023-01-12T20:18:28.032Z,11.40
2023-01-12T20:20:54.756Z,11.30
2023-01-12T20:23:21.535Z,11.30
2023-01-12T20:25:48.473Z,11.30
2023-01-12T20:28:15.354Z,11.30
2023-01-12T20:30:43.281Z,11.40
2023-01-12T20:33:11.913Z,11.30
2023-01-12T20:35:44.962Z,11.40
2023-01-12T20:38:12.421Z,11.40
2023-01-12T20:40:39.295Z,11.40
2023-01-12T20:43:06.240Z,11.40
2023-01-12T20:45:33.305Z,11.40
2023-01-12T20:48:00.218Z,11.50
2023-01-12T20:50:28.450Z,11.50
2023-01-12T20:52:56.587Z,11.50
2023-01-12T20:55:23.333Z,11.50
2023-01-12T20:57:50.179Z,11.50
2023-01-12T21:00:17.872Z,11.50
2023-01-12T21:02:44.803Z,11.60
2023-01-12T21:05:11.600Z,11.60
2023-01-12T21:07:38.535Z,11.50
2023-01-12T21:10:07.840Z,11.60
2023-01-12T21:12:34.729Z,11.50
2023-01-12T21:15:01.547Z,11.50
2023-01-12T21:17:28.479Z,11.60
2023-01-12T21:19:55.722Z,11.50
2023-01-12T21:22:22.733Z,11.60
2023-01-12T21:24:49.557Z,11.60
2023-01-12T21:27:17.725Z,11.60
2023-01-12T21:29:44.611Z,11.50
2023-01-12T21:32:11.677Z,11.50
2023-01-12T21:34:38.612Z,11.50
2023-01-12T21:37:05.494Z,11.50
2023-01-12T21:39:32.261Z,11.60
2023-01-12T21:41:59.009Z,11.50
2023-01-12T21:44:27.105Z,11.50
2023-01-12T21:46:53.866Z,11.60
2023-01-12T21:49:21.058Z,11.60
2023-01-12T21:51:47.857Z,11.70
2023-01-12T21:57:05.727Z,11.60
2023-01-12T21:59:33.946Z,11.60
2023-01-12T22:02:01.119Z,11.60
2023-01-12T22:04:28.102Z,11.60
2023-01-12T22:06:55.168Z,11.60
2023-01-12T22:09:23.147Z,11.70
2023-01-12T22:11:51.252Z,11.60
2023-01-12T22:14:18.144Z,11.70
2023-01-12T22:16:46.681Z,11.70
2023-01-12T22:19:13.787Z,11.60
2023-01-12T22:21:40.751Z,11.60
2023-01-12T22:24:08.024Z,11.60
2023-01-12T22:26:35.635Z,11.60
2023-01-12T22:29:02.550Z,11.60
2023-01-12T22:31:29.409Z,11.70
2023-01-12T22:33:59.747Z,11.70
2023-01-12T22:36:27.068Z,11.70
2023-01-12T22:38:54.409Z,11.70
2023-01-12T22:41:21.666Z,11.60
2023-01-12T22:43:48.753Z,11.60
2023-01-12T22:46:18.547Z,11.70
2023-01-12T22:48:48.864Z,11.70
2023-01-12T22:51:17.857Z,11.60
2023-01-12T22:53:44.926Z,11.60
2023-01-12T22:56:11.664Z,11.60
2023-01-12T22:59:03.936Z,11.60
2023-01-12T23:01:30.741Z,11.60
2023-01-12T23:03:58.145Z,11.70
2023-01-12T23:06:27.087Z,11.70
2023-01-12T23:08:54.241Z,11.70
2023-01-12T23:11:24.215Z,11.70
2023-01-12T23:13:52.043Z,11.60
2023-01-12T23:16:19.246Z,11.60
2023-01-12T23:18:48.193Z,11.60
2023-01-12T23:21:17.517Z,11.60
2023-01-12T23:23:48.056Z,11.60
2023-01-12T23:26:20.036Z,11.60
2023-01-12T23:28:50.116Z,11.60
2023-01-12T23:31:20.827Z,11.60
2023-01-12T23:33:48.460Z,11.60
2023-01-12T23:36:18.438Z,11.60
2023-01-12T23:38:46.777Z,11.60
2023-01-12T23:41:16.348Z,11.60
2023-01-12T23:43:43.721Z,11.60
2023-01-12T23:46:11.797Z,11.60
2023-01-12T23:48:39.925Z,11.50
2023-01-12T23:51:07.057Z,11.50
2023-01-12T23:53:33.962Z,11.60
2023-01-12T23:56:06.808Z,11.60
2023-01-12T23:58:33.925Z,11.60
